Ji Run — VRAD3 — position and weather

sailwx.info

Track history (hours):
 
Tides and Currents Weather Stations Pressure Air Temp Water Temp Dewpoint Dewpoint Depression Visibility Wind Speed Wind Dir Waves Ship Positions

Ji Run

Last reported at 2018-Jun-21 10:22 UTC. Time now 2018-Jun-24 22:33 UTC.
Position N 24°25' E 118°36'.

Length 135 m; draft 6.2 m.

Type: Ship (hazmat cat D). MMSI: 477400900.

Date/timePositionNaut miles runAvg speedWind from/ knotsBaromVisibWave heightAir tempDewpointWater temp
2018-Jun-21 10:22N 24°25' E 118°36'512.3
2018-Jun-21 10:00N 24°23' E 118°32'612.2
2018-Jun-21 09:30N 24°19' E 118°26'611.6
2018-Jun-21 09:00N 24°19' E 118°20'611.1
2018-Jun-21 08:30N 24°20' E 118°14'510.7
2018-Jun-21 08:00N 24°22' E 118°08'510.8
2018-Jun-21 07:30N 24°25' E 118°04'5 9.8
2018-Jun-21 07:00N 24°30' E 118°04'1 2.2
2018-Jun-21 06:30N 24°31' E 118°05'0 0.0
2018-Jun-21 05:57N 24°31' E 118°05'0 0.0
2018-Jun-21 05:27N 24°31' E 118°05'0 0.0
2018-Jun-21 05:00N 24°31' E 118°05'0 0.0
2018-Jun-21 04:30N 24°31' E 118°05'0 0.0
2018-Jun-21 03:57N 24°31' E 118°05'0 0.0
2018-Jun-21 03:30N 24°31' E 118°05'0 0.0
2018-Jun-21 03:00N 24°31' E 118°05'0 0.0
2018-Jun-21 02:27N 24°31' E 118°05'0 0.0
2018-Jun-21 02:00N 24°31' E 118°05'0 0.0
2018-Jun-21 01:30N 24°31' E 118°05'0 0.9
2018-Jun-21 01:00N 24°31' E 118°05'5 9.0
2018-Jun-21 00:30N 24°27' E 118°03'611.2
2018-Jun-21 00:00N 24°23' E 118°08'3 6.6
2018-Jun-20 23:30N 24°21' E 118°11'  
2018-Jun-15 09:03N 35°06' E 139°40'114.4
2018-Jun-15 09:00N 35°06' E 139°41'714.1
2018-Jun-15 08:30N 35°12' E 139°45'510.5
2018-Jun-15 08:00N 35°17' E 139°45'611.6
2018-Jun-15 07:30N 35°22' E 139°42'612.5
2018-Jun-15 07:00N 35°27' E 139°47'612.4
2018-Jun-15 06:30N 35°33' E 139°51'4 0.5
2018-Jun-14 22:37N 35°36' E 139°47'0 2.1
2018-Jun-14 22:30N 35°36' E 139°47'3 6.4
2018-Jun-14 22:00N 35°34' E 139°50'1 1.1
2018-Jun-14 21:24N 35°34' E 139°51'0 0.0
2018-Jun-14 21:00N 35°34' E 139°51'0 0.0
2018-Jun-14 20:24N 35°34' E 139°51'0 0.0
2018-Jun-14 19:54N 35°34' E 139°51'0 0.0
2018-Jun-14 19:30N 35°34' E 139°51'0 0.0
2018-Jun-14 19:00N 35°34' E 139°51'0 0.0
2018-Jun-14 18:30N 35°34' E 139°51'0 0.0
2018-Jun-14 18:00N 35°34' E 139°51'0 0.1
2018-Jun-14 17:30N 35°34' E 139°51'0 0.1
2018-Jun-14 17:00N 35°34' E 139°51'0 0.0
2018-Jun-14 16:30N 35°34' E 139°51'0 0.0
2018-Jun-14 16:00N 35°34' E 139°51'0 0.0
2018-Jun-14 15:30N 35°34' E 139°51'1 1.9
2018-Jun-14 14:59N 35°33' E 139°51'611.6
2018-Jun-14 14:30N 35°28' E 139°50'611.6
2018-Jun-14 14:00N 35°26' E 139°43'2 4.3
2018-Jun-14 13:30N 35°26' E 139°41'0 0.0
2018-Jun-14 12:58N 35°26' E 139°41'0 0.0
2018-Jun-14 12:28N 35°26' E 139°41'0 0.0
2018-Jun-14 11:58N 35°26' E 139°41'0 0.0
2018-Jun-14 11:28N 35°26' E 139°41'0 0.0
2018-Jun-14 10:58N 35°26' E 139°41'0 0.0
2018-Jun-14 10:28N 35°26' E 139°41'0 0.1
2018-Jun-14 09:58N 35°26' E 139°41'0 0.1
2018-Jun-14 09:28N 35°26' E 139°41'0 0.0
2018-Jun-14 09:00N 35°26' E 139°41'1 2.4
2018-Jun-14 08:30N 35°26' E 139°42'1 1.1
2018-Jun-14 07:59N 35°25' E 139°42'0 0.0
2018-Jun-14 07:29N 35°25' E 139°42'0 0.1
2018-Jun-14 06:56N 35°25' E 139°42'0 0.0
2018-Jun-14 06:29N 35°25' E 139°42'0 0.1
2018-Jun-14 05:59N 35°25' E 139°42'0 0.1
2018-Jun-14 05:29N 35°25' E 139°42'0 0.2
2018-Jun-14 04:59N 35°25' E 139°42'0 0.0
2018-Jun-14 04:26N 35°25' E 139°42'0 0.1
2018-Jun-14 03:59N 35°25' E 139°42'0 0.0
2018-Jun-14 03:29N 35°25' E 139°42'0 0.0
2018-Jun-14 02:59N 35°25' E 139°42'0 0.1
2018-Jun-14 02:28N 35°25' E 139°42'0 0.0
2018-Jun-14 01:58N 35°25' E 139°42'0 0.1
2018-Jun-14 01:28N 35°25' E 139°42'0 0.0
2018-Jun-14 00:58N 35°25' E 139°42'0 0.1
2018-Jun-14 00:28N 35°25' E 139°42'0 0.0
2018-Jun-13 23:55N 35°25' E 139°42'0 0.0
2018-Jun-13 23:28N 35°25' E 139°42'0 0.0
2018-Jun-13 22:58N 35°25' E 139°42'0 0.0
2018-Jun-13 22:28N 35°25' E 139°42'0 0.0
2018-Jun-13 21:58N 35°25' E 139°42'0 0.0
2018-Jun-13 21:28N 35°25' E 139°42'0 0.0
2018-Jun-13 20:58N 35°25' E 139°42'0 0.0
2018-Jun-13 20:28N 35°25' E 139°42'0 0.1
2018-Jun-13 19:58N 35°25' E 139°42'0 0.0
2018-Jun-13 19:28N 35°25' E 139°42'0 0.3
2018-Jun-13 19:01N 35°25' E 139°42'5 9.8
2018-Jun-13 18:30N 35°20' E 139°43'613.0
2018-Jun-13 18:01N 35°15' E 139°47'24712.4
2018-Jun-12 22:08N 33°44' E 135°09'214.8
2018-Jun-12 21:59N 33°46' E 135°07'714.4
2018-Jun-12 21:31N 33°51' E 135°03'713.9
2018-Jun-12 21:00N 33°58' E 134°59'713.4
2018-Jun-12 20:30N 34°04' E 134°58'713.8
2018-Jun-12 20:00N 34°11' E 134°58'714.0
2018-Jun-12 19:30N 34°18' E 134°59'612.9
2018-Jun-12 19:00N 34°24' E 135°03'714.5
2018-Jun-12 18:30N 34°28' E 135°10'713.8
2018-Jun-12 18:00N 34°34' E 135°15'713.4
2018-Jun-12 17:31N 34°37' E 135°22'2 0.4
2018-Jun-12 12:16N 34°39' E 135°24'0 0.0
2018-Jun-12 11:46N 34°39' E 135°24'0 0.0
2018-Jun-12 11:22N 34°39' E 135°24'0 0.3
2018-Jun-12 11:00N 34°39' E 135°24'4 7.6
2018-Jun-12 10:30N 34°36' E 135°20'713.9
2018-Jun-12 10:00N 34°35' E 135°12'713.6
2018-Jun-12 09:30N 34°35' E 135°04'9 9.2
2018-Jun-12 08:33N 34°35' E 134°53'111.1
2018-Jun-12 08:28N 34°34' E 134°52'612.7
2018-Jun-12 07:59N 34°32' E 134°45'613.3
2018-Jun-12 07:30N 34°29' E 134°38'713.9
2018-Jun-12 07:00N 34°26' E 134°30'  
Track history (hours):
 
Tides and Currents Weather Stations Pressure Air Temp Water Temp Dewpoint Dewpoint Depression Visibility Wind Speed Wind Dir Waves Ship Positions

Ji Run

Last reported at 2018-Jun-21 10:22 UTC. Time now 2018-Jun-24 22:33 UTC.
Position N 24°25' E 118°36'.

Length 135 m; draft 6.2 m.

Type: Ship (hazmat cat D). MMSI: 477400900.

Date/timePositionNaut miles runAvg speedWind from/ knotsBaromVisibWave heightAir tempDewpointWater temp
2018-Jun-21 10:22N 24°25' E 118°36'512.3
2018-Jun-21 10:00N 24°23' E 118°32'612.2
2018-Jun-21 09:30N 24°19' E 118°26'611.6
2018-Jun-21 09:00N 24°19' E 118°20'611.1
2018-Jun-21 08:30N 24°20' E 118°14'510.7
2018-Jun-21 08:00N 24°22' E 118°08'510.8
2018-Jun-21 07:30N 24°25' E 118°04'5 9.8
2018-Jun-21 07:00N 24°30' E 118°04'1 2.2
2018-Jun-21 06:30N 24°31' E 118°05'0 0.0
2018-Jun-21 05:57N 24°31' E 118°05'0 0.0
2018-Jun-21 05:27N 24°31' E 118°05'0 0.0
2018-Jun-21 05:00N 24°31' E 118°05'0 0.0
2018-Jun-21 04:30N 24°31' E 118°05'0 0.0
2018-Jun-21 03:57N 24°31' E 118°05'0 0.0
2018-Jun-21 03:30N 24°31' E 118°05'0 0.0
2018-Jun-21 03:00N 24°31' E 118°05'0 0.0
2018-Jun-21 02:27N 24°31' E 118°05'0 0.0
2018-Jun-21 02:00N 24°31' E 118°05'0 0.0
2018-Jun-21 01:30N 24°31' E 118°05'0 0.9
2018-Jun-21 01:00N 24°31' E 118°05'5 9.0
2018-Jun-21 00:30N 24°27' E 118°03'611.2
2018-Jun-21 00:00N 24°23' E 118°08'3 6.6
2018-Jun-20 23:30N 24°21' E 118°11'  
2018-Jun-15 09:03N 35°06' E 139°40'114.4
2018-Jun-15 09:00N 35°06' E 139°41'714.1
2018-Jun-15 08:30N 35°12' E 139°45'510.5
2018-Jun-15 08:00N 35°17' E 139°45'611.6
2018-Jun-15 07:30N 35°22' E 139°42'612.5
2018-Jun-15 07:00N 35°27' E 139°47'612.4
2018-Jun-15 06:30N 35°33' E 139°51'4 0.5
2018-Jun-14 22:37N 35°36' E 139°47'0 2.1
2018-Jun-14 22:30N 35°36' E 139°47'3 6.4
2018-Jun-14 22:00N 35°34' E 139°50'1 1.1
2018-Jun-14 21:24N 35°34' E 139°51'0 0.0
2018-Jun-14 21:00N 35°34' E 139°51'0 0.0
2018-Jun-14 20:24N 35°34' E 139°51'0 0.0
2018-Jun-14 19:54N 35°34' E 139°51'0 0.0
2018-Jun-14 19:30N 35°34' E 139°51'0 0.0
2018-Jun-14 19:00N 35°34' E 139°51'0 0.0
2018-Jun-14 18:30N 35°34' E 139°51'0 0.0
2018-Jun-14 18:00N 35°34' E 139°51'0 0.1
2018-Jun-14 17:30N 35°34' E 139°51'0 0.1
2018-Jun-14 17:00N 35°34' E 139°51'0 0.0
2018-Jun-14 16:30N 35°34' E 139°51'0 0.0
2018-Jun-14 16:00N 35°34' E 139°51'0 0.0
2018-Jun-14 15:30N 35°34' E 139°51'1 1.9
2018-Jun-14 14:59N 35°33' E 139°51'611.6
2018-Jun-14 14:30N 35°28' E 139°50'611.6
2018-Jun-14 14:00N 35°26' E 139°43'2 4.3
2018-Jun-14 13:30N 35°26' E 139°41'0 0.0
2018-Jun-14 12:58N 35°26' E 139°41'0 0.0
2018-Jun-14 12:28N 35°26' E 139°41'0 0.0
2018-Jun-14 11:58N 35°26' E 139°41'0 0.0
2018-Jun-14 11:28N 35°26' E 139°41'0 0.0
2018-Jun-14 10:58N 35°26' E 139°41'0 0.0
2018-Jun-14 10:28N 35°26' E 139°41'0 0.1
2018-Jun-14 09:58N 35°26' E 139°41'0 0.1
2018-Jun-14 09:28N 35°26' E 139°41'0 0.0
2018-Jun-14 09:00N 35°26' E 139°41'1 2.4
2018-Jun-14 08:30N 35°26' E 139°42'1 1.1
2018-Jun-14 07:59N 35°25' E 139°42'0 0.0
2018-Jun-14 07:29N 35°25' E 139°42'0 0.1
2018-Jun-14 06:56N 35°25' E 139°42'0 0.0
2018-Jun-14 06:29N 35°25' E 139°42'0 0.1
2018-Jun-14 05:59N 35°25' E 139°42'0 0.1
2018-Jun-14 05:29N 35°25' E 139°42'0 0.2
2018-Jun-14 04:59N 35°25' E 139°42'0 0.0
2018-Jun-14 04:26N 35°25' E 139°42'0 0.1
2018-Jun-14 03:59N 35°25' E 139°42'0 0.0
2018-Jun-14 03:29N 35°25' E 139°42'0 0.0
2018-Jun-14 02:59N 35°25' E 139°42'0 0.1
2018-Jun-14 02:28N 35°25' E 139°42'0 0.0
2018-Jun-14 01:58N 35°25' E 139°42'0 0.1
2018-Jun-14 01:28N 35°25' E 139°42'0 0.0
2018-Jun-14 00:58N 35°25' E 139°42'0 0.1
2018-Jun-14 00:28N 35°25' E 139°42'0 0.0
2018-Jun-13 23:55N 35°25' E 139°42'0 0.0
2018-Jun-13 23:28N 35°25' E 139°42'0 0.0
2018-Jun-13 22:58N 35°25' E 139°42'0 0.0
2018-Jun-13 22:28N 35°25' E 139°42'0 0.0
2018-Jun-13 21:58N 35°25' E 139°42'0 0.0
2018-Jun-13 21:28N 35°25' E 139°42'0 0.0
2018-Jun-13 20:58N 35°25' E 139°42'0 0.0
2018-Jun-13 20:28N 35°25' E 139°42'0 0.1
2018-Jun-13 19:58N 35°25' E 139°42'0 0.0
2018-Jun-13 19:28N 35°25' E 139°42'0 0.3
2018-Jun-13 19:01N 35°25' E 139°42'5 9.8
2018-Jun-13 18:30N 35°20' E 139°43'613.0
2018-Jun-13 18:01N 35°15' E 139°47'24712.4
2018-Jun-12 22:08N 33°44' E 135°09'214.8
2018-Jun-12 21:59N 33°46' E 135°07'714.4
2018-Jun-12 21:31N 33°51' E 135°03'713.9
2018-Jun-12 21:00N 33°58' E 134°59'713.4
2018-Jun-12 20:30N 34°04' E 134°58'713.8
2018-Jun-12 20:00N 34°11' E 134°58'714.0
2018-Jun-12 19:30N 34°18' E 134°59'612.9
2018-Jun-12 19:00N 34°24' E 135°03'714.5
2018-Jun-12 18:30N 34°28' E 135°10'713.8
2018-Jun-12 18:00N 34°34' E 135°15'713.4
2018-Jun-12 17:31N 34°37' E 135°22'2 0.4
2018-Jun-12 12:16N 34°39' E 135°24'0 0.0
2018-Jun-12 11:46N 34°39' E 135°24'0 0.0
2018-Jun-12 11:22N 34°39' E 135°24'0 0.3
2018-Jun-12 11:00N 34°39' E 135°24'4 7.6
2018-Jun-12 10:30N 34°36' E 135°20'713.9
2018-Jun-12 10:00N 34°35' E 135°12'713.6
2018-Jun-12 09:30N 34°35' E 135°04'9 9.2
2018-Jun-12 08:33N 34°35' E 134°53'111.1
2018-Jun-12 08:28N 34°34' E 134°52'612.7
2018-Jun-12 07:59N 34°32' E 134°45'613.3
2018-Jun-12 07:30N 34°29' E 134°38'713.9
2018-Jun-12 07:00N 34°26' E 134°30'  

Dump ship's entire track history